createdAt,value
2023-03-28T00:02:48.872Z,100217.47
2023-03-28T00:07:54.298Z,100220.17
2023-03-28T00:13:00.596Z,100223.45
2023-03-28T00:18:07.986Z,100225.79
2023-03-28T00:23:14.070Z,100227.43
2023-03-28T00:28:19.618Z,100217.63
2023-03-28T00:33:25.295Z,100213.38
2023-03-28T00:38:32.622Z,100210.51
2023-03-28T00:43:41.211Z,100207.10
2023-03-28T00:48:52.467Z,100199.29
2023-03-28T00:54:01.057Z,100193.02
2023-03-28T00:59:12.015Z,100195.56
2023-03-28T01:04:22.128Z,100200.58
2023-03-28T01:09:28.665Z,100199.13
2023-03-28T01:14:36.854Z,100200.10
2023-03-28T01:20:02.670Z,100195.71
2023-03-28T01:25:37.028Z,100192.90
2023-03-28T01:31:16.749Z,100185.08
2023-03-28T01:36:57.123Z,100175.93
2023-03-28T01:42:12.527Z,100168.93
2023-03-28T01:47:25.059Z,100169.73
2023-03-28T01:52:38.632Z,100165.56
2023-03-28T01:57:54.406Z,100157.68
2023-03-28T02:03:05.356Z,100163.83
2023-03-28T02:08:18.726Z,100168.66
2023-03-28T02:13:33.507Z,100172.78
2023-03-28T02:18:59.721Z,100167.17
2023-03-28T02:24:22.079Z,100163.07
2023-03-28T02:29:54.671Z,100157.99
2023-03-28T02:35:27.573Z,100149.04
2023-03-28T02:40:46.785Z,100162.43
2023-03-28T02:46:17.651Z,100161.94
2023-03-28T02:51:31.779Z,100151.77
2023-03-28T02:56:44.213Z,100146.44
2023-03-28T03:02:02.276Z,100144.08
2023-03-28T03:07:08.897Z,100142.10
2023-03-28T03:12:14.643Z,100139.33
2023-03-28T03:17:20.578Z,100140.92
2023-03-28T03:22:27.730Z,100135.33
2023-03-28T03:27:34.702Z,100127.80
2023-03-28T03:32:44.366Z,100117.91
2023-03-28T03:37:50.312Z,100116.27
2023-03-28T03:42:55.974Z,100119.13
2023-03-28T03:48:01.737Z,100115.52
2023-03-28T03:53:07.514Z,100122.59
2023-03-28T03:58:18.824Z,100124.14
2023-03-28T04:03:28.976Z,100118.14
2023-03-28T04:08:36.232Z,100114.33
2023-03-28T04:13:42.557Z,100107.16
2023-03-28T04:18:50.904Z,100103.98
2023-03-28T04:24:01.792Z,100098.20
2023-03-28T04:29:25.374Z,100102.20
2023-03-28T04:34:51.054Z,100109.59
2023-03-28T04:39:57.083Z,100110.42
2023-03-28T04:45:18.929Z,100109.27
2023-03-28T04:50:25.161Z,100109.55
2023-03-28T04:55:31.935Z,100110.85
2023-03-28T05:00:39.714Z,100115.75
2023-03-28T05:06:14.515Z,100109.30
2023-03-28T05:11:20.235Z,100112.53
2023-03-28T05:16:26.058Z,100108.63
2023-03-28T05:21:37.616Z,100101.27
2023-03-28T05:26:43.108Z,100097.63
2023-03-28T05:31:48.897Z,100095.30
2023-03-28T05:37:02.420Z,100092.09
2023-03-28T05:42:12.272Z,100088.05
2023-03-28T05:47:19.171Z,100087.66
2023-03-28T05:52:24.809Z,100086.43
2023-03-28T05:57:30.975Z,100093.98
2023-03-28T06:02:36.531Z,100089.68
2023-03-28T06:07:43.110Z,100095.66
2023-03-28T06:12:50.823Z,100096.83
2023-03-28T06:17:57.911Z,100103.98
2023-03-28T06:23:04.174Z,100113.31
2023-03-28T06:28:10.719Z,100114.70
2023-03-28T06:33:35.643Z,100126.10
2023-03-28T06:38:42.709Z,100126.52
2023-03-28T06:43:48.257Z,100127.86
2023-03-28T06:49:32.391Z,100129.29
2023-03-28T06:54:56.730Z,100131.77
2023-03-28T07:00:04.452Z,100137.55
2023-03-28T07:05:30.395Z,100145.81
2023-03-28T07:10:37.474Z,100154.50
2023-03-28T07:15:42.956Z,100156.82
2023-03-28T07:20:54.834Z,100162.88
2023-03-28T07:26:11.856Z,100164.86
2023-03-28T07:31:18.470Z,100171.34
2023-03-28T07:36:25.874Z,100177.64
2023-03-28T07:41:33.523Z,100182.72
2023-03-28T07:46:39.003Z,100188.58
2023-03-28T07:51:44.527Z,100188.73
2023-03-28T07:56:51.718Z,100188.20
2023-03-28T08:02:17.526Z,100197.57
2023-03-28T08:07:25.669Z,100200.96
2023-03-28T08:12:32.863Z,100202.76
2023-03-28T08:17:38.638Z,100200.77
2023-03-28T08:22:46.589Z,100205.60
2023-03-28T08:28:11.554Z,100211.64
2023-03-28T08:33:17.498Z,100213.47
2023-03-28T08:38:23.626Z,100208.60
2023-03-28T08:43:48.858Z,100205.64
2023-03-28T08:48:57.178Z,100213.55
2023-03-28T08:54:11.389Z,100215.42
2023-03-28T08:59:20.899Z,100208.23
2023-03-28T09:04:35.045Z,100207.08
2023-03-28T09:10:11.675Z,100209.66
2023-03-28T09:15:46.577Z,100214.95
2023-03-28T09:20:59.427Z,100212.79
2023-03-28T09:26:21.692Z,100217.17
2023-03-28T09:31:35.643Z,100232.89
2023-03-28T09:36:49.763Z,100245.34
2023-03-28T09:42:02.539Z,100270.27
2023-03-28T09:47:26.591Z,100293.16
2023-03-28T09:52:39.203Z,100302.29
2023-03-28T09:58:06.174Z,100310.71
2023-03-28T10:03:23.516Z,100324.72
2023-03-28T10:08:35.671Z,100331.80
2023-03-28T10:13:52.216Z,100340.89
2023-03-28T10:18:58.369Z,100351.02
2023-03-28T10:24:13.288Z,100361.35
2023-03-28T10:29:22.231Z,100372.63
2023-03-28T10:34:31.627Z,100379.14
2023-03-28T10:40:01.121Z,100393.44
2023-03-28T10:45:42.543Z,100403.20
2023-03-28T10:50:53.547Z,100413.29
2023-03-28T10:56:15.591Z,100423.44
2023-03-28T11:01:33.156Z,100431.94
2023-03-28T11:06:58.944Z,100440.73
2023-03-28T11:12:51.167Z,100450.80
2023-03-28T11:18:18.020Z,100462.23
2023-03-28T11:23:43.662Z,100462.65
2023-03-28T11:29:24.210Z,100475.50
2023-03-28T11:34:43.333Z,100477.79
2023-03-28T11:39:53.240Z,100476.46
2023-03-28T11:45:08.782Z,100482.05
2023-03-28T11:50:23.010Z,100487.48
2023-03-28T11:55:48.481Z,100492.11
2023-03-28T12:01:15.635Z,100509.84
2023-03-28T12:06:22.672Z,100517.98
2023-03-28T12:11:36.661Z,100529.03
2023-03-28T12:16:49.337Z,100527.46
2023-03-28T12:22:01.291Z,100524.80
2023-03-28T12:27:27.892Z,100524.63
2023-03-28T12:32:46.753Z,100527.69
2023-03-28T12:37:59.808Z,100537.45
2023-03-28T12:43:07.482Z,100543.37
2023-03-28T12:48:23.137Z,100550.60
2023-03-28T12:53:33.210Z,100556.28
2023-03-28T12:58:39.896Z,100556.95
2023-03-28T13:04:17.690Z,100553.12
2023-03-28T13:09:59.909Z,100561.69
2023-03-28T13:15:30.156Z,100563.61
2023-03-28T13:20:43.883Z,100561.85
2023-03-28T13:25:57.482Z,100568.77
2023-03-28T13:31:22.106Z,100564.98
2023-03-28T13:36:32.779Z,100570.91
2023-03-28T13:41:58.070Z,100571.17
2023-03-28T13:47:05.190Z,100574.69
2023-03-28T13:52:18.546Z,100577.16
2023-03-28T13:57:27.116Z,100589.05
2023-03-28T14:02:41.663Z,100612.30
2023-03-28T14:07:48.522Z,100622.13
2023-03-28T14:12:57.062Z,100623.91
2023-03-28T14:18:04.929Z,100627.48
2023-03-28T14:23:30.331Z,100630.97
2023-03-28T14:28:41.006Z,100641.35
2023-03-28T14:33:47.654Z,100644.70
2023-03-28T14:38:54.244Z,100646.39
2023-03-28T14:44:00.761Z,100643.88
2023-03-28T14:49:10.259Z,100646.30
2023-03-28T14:54:22.134Z,100655.96
2023-03-28T14:59:35.005Z,100666.77
2023-03-28T15:04:41.120Z,100668.70
2023-03-28T15:10:01.374Z,100673.86
2023-03-28T15:15:14.697Z,100681.63
2023-03-28T15:20:24.826Z,100687.19
2023-03-28T15:25:34.265Z,100693.59
2023-03-28T15:30:43.744Z,100699.27
2023-03-28T15:35:50.542Z,100701.80
2023-03-28T15:41:25.139Z,100715.84
2023-03-28T15:46:33.965Z,100720.30
2023-03-28T15:51:52.743Z,100733.39
2023-03-28T15:57:02.506Z,100742.67
2023-03-28T16:02:31.273Z,100748.95
2023-03-28T16:07:50.846Z,100762.90
2023-03-28T16:12:57.754Z,100770.31
2023-03-28T16:18:27.135Z,100780.16
2023-03-28T16:23:36.267Z,100785.05
2023-03-28T16:28:42.347Z,100790.04
2023-03-28T16:33:47.870Z,100790.89
2023-03-28T16:38:53.732Z,100803.59
2023-03-28T16:43:59.765Z,100814.79
2023-03-28T16:49:07.362Z,100823.52
2023-03-28T16:54:13.057Z,100828.20
2023-03-28T16:59:20.536Z,100833.80
2023-03-28T17:04:29.807Z,100837.20
2023-03-28T17:09:37.722Z,100846.73
2023-03-28T17:14:46.238Z,100858.74
2023-03-28T17:19:53.678Z,100866.15
2023-03-28T17:25:02.284Z,100875.97
2023-03-28T17:30:12.305Z,100881.14
2023-03-28T17:35:19.357Z,100889.26
2023-03-28T17:40:26.839Z,100893.05
2023-03-28T17:45:35.177Z,100902.67
2023-03-28T17:50:41.797Z,100905.11
2023-03-28T17:55:50.905Z,100915.48
2023-03-28T18:00:56.946Z,100929.72
2023-03-28T18:06:03.203Z,100936.73
2023-03-28T18:11:11.395Z,100937.02
2023-03-28T18:16:18.493Z,100946.61
2023-03-28T18:21:24.689Z,100950.86
2023-03-28T18:26:31.719Z,100944.73
2023-03-28T18:31:39.041Z,100951.36
2023-03-28T18:36:45.533Z,100957.09
2023-03-28T18:41:51.190Z,100959.11
2023-03-28T18:46:58.369Z,100964.39
2023-03-28T18:52:04.774Z,100965.59
2023-03-28T18:57:10.548Z,100965.23
2023-03-28T19:02:17.504Z,100972.36
2023-03-28T19:07:24.133Z,100972.88
2023-03-28T19:12:31.054Z,100977.73
2023-03-28T19:17:37.880Z,100977.54
2023-03-28T19:22:44.298Z,100971.27
2023-03-28T19:27:52.139Z,100969.02
2023-03-28T19:32:58.062Z,100972.27
2023-03-28T19:38:04.619Z,100973.19
2023-03-28T19:43:10.563Z,100976.42
2023-03-28T19:48:17.122Z,100983.76
2023-03-28T19:53:22.789Z,100982.27
2023-03-28T19:58:29.491Z,100984.95
2023-03-28T20:03:35.452Z,100982.40
2023-03-28T20:08:42.733Z,100984.09
2023-03-28T20:13:48.339Z,100984.83
2023-03-28T20:18:55.912Z,100980.92
2023-03-28T20:24:01.369Z,100983.65
2023-03-28T20:29:10.355Z,100984.34
2023-03-28T20:34:16.356Z,100986.79
2023-03-28T20:39:23.661Z,100989.91
2023-03-28T20:44:30.732Z,100988.11
2023-03-28T20:49:38.478Z,100987.13
2023-03-28T20:54:44.504Z,100991.12
2023-03-28T20:59:50.191Z,100986.14
2023-03-28T21:04:55.987Z,100986.81
2023-03-28T21:10:01.460Z,100985.81
2023-03-28T21:15:09.155Z,100991.36
2023-03-28T21:20:14.941Z,100990.09
2023-03-28T21:25:21.038Z,100995.10
2023-03-28T21:30:27.209Z,101004.01
2023-03-28T21:35:34.321Z,101006.98
2023-03-28T21:40:40.096Z,101010.82
2023-03-28T21:45:49.065Z,101010.87
2023-03-28T21:51:02.397Z,101011.59
2023-03-28T21:56:11.706Z,101015.38
2023-03-28T22:01:18.333Z,101020.67
2023-03-28T22:06:24.053Z,101015.77
2023-03-28T22:11:29.861Z,101017.16
2023-03-28T22:16:37.587Z,101014.49
2023-03-28T22:21:44.509Z,101013.07
2023-03-28T22:26:50.079Z,101014.00
2023-03-28T22:31:55.767Z,101018.73
2023-03-28T22:37:01.222Z,101021.98
2023-03-28T22:42:07.500Z,101023.20
2023-03-28T22:47:13.233Z,101024.09
2023-03-28T22:52:18.926Z,101022.55
2023-03-28T22:57:24.629Z,101026.27
2023-03-28T23:02:30.317Z,101028.45
2023-03-28T23:07:37.559Z,101030.54
2023-03-28T23:12:43.870Z,101028.32
2023-03-28T23:17:49.394Z,101030.59
2023-03-28T23:22:55.393Z,101028.63
2023-03-28T23:28:01.051Z,101027.13
2023-03-28T23:33:07.244Z,101029.92
2023-03-28T23:38:14.115Z,101027.90
2023-03-28T23:43:19.584Z,101031.59
2023-03-28T23:48:25.253Z,101029.41
2023-03-28T23:53:31.377Z,101027.98
2023-03-28T23:58:37.020Z,101028.64
